createdAt,value
2018-01-04T00:00:27.639Z,40.7
2018-01-04T00:01:29.684Z,40.3
2018-01-04T00:02:31.656Z,40.5
2018-01-04T00:03:33.968Z,35.7
2018-01-04T00:04:35.922Z,41.4
2018-01-04T00:05:37.993Z,37.8
2018-01-04T00:06:40.033Z,41.4
2018-01-04T00:07:42.202Z,38.9
2018-01-04T00:08:44.324Z,34.0
2018-01-04T00:09:46.414Z,36.9
2018-01-04T00:10:48.598Z,42.1
2018-01-04T00:11:50.637Z,36.0
2018-01-04T00:12:52.618Z,37.4
2018-01-04T00:13:54.626Z,41.6
2018-01-04T00:14:56.725Z,36.6
2018-01-04T00:15:58.970Z,44.0
2018-01-04T00:17:01.083Z,43.6
2018-01-04T00:18:03.132Z,33.2
2018-01-04T00:19:05.142Z,41.5
2018-01-04T00:20:07.184Z,40.3
2018-01-04T00:21:09.317Z,40.2
2018-01-04T00:22:11.306Z,46.4
2018-01-04T00:23:13.317Z,35.4
2018-01-04T00:24:15.259Z,36.7
2018-01-04T00:25:17.250Z,29.8
2018-01-04T00:26:19.142Z,36.3
2018-01-04T00:27:21.361Z,41.1
2018-01-04T00:28:23.439Z,42.6
2018-01-04T00:29:25.383Z,37.6
2018-01-04T00:30:27.304Z,35.8
2018-01-04T00:31:29.248Z,42.5
2018-01-04T00:32:31.337Z,37.4
2018-01-04T00:33:33.229Z,36.8
2018-01-04T00:34:35.253Z,39.1
2018-01-04T00:35:37.188Z,31.5
2018-01-04T00:36:39.190Z,36.4
2018-01-04T00:37:41.210Z,40.2
2018-01-04T00:38:43.170Z,35.8
2018-01-04T00:39:45.173Z,43.9
2018-01-04T00:40:47.033Z,31.7
2018-01-04T00:41:48.904Z,42.5
2018-01-04T00:42:50.879Z,50.0
2018-01-04T00:43:52.852Z,33.4
2018-01-04T00:44:54.862Z,44.0
2018-01-04T00:45:56.759Z,36.7
2018-01-04T00:46:58.698Z,36.4
2018-01-04T00:48:00.694Z,39.3
2018-01-04T00:49:02.803Z,37.3
2018-01-04T00:50:04.769Z,38.6
2018-01-04T00:51:06.731Z,40.5
2018-01-04T00:52:08.809Z,38.0
2018-01-04T00:53:10.891Z,42.9
2018-01-04T00:54:12.984Z,36.4
2018-01-04T00:55:15.080Z,39.0
2018-01-04T00:56:17.117Z,38.8
2018-01-04T00:57:19.129Z,43.3
2018-01-04T00:58:21.261Z,35.4
2018-01-04T00:59:23.388Z,32.0
2018-01-04T01:00:25.461Z,38.4
2018-01-04T01:01:27.381Z,30.8
2018-01-04T01:02:29.408Z,34.5
2018-01-04T01:03:31.631Z,45.9
2018-01-04T01:04:33.724Z,46.2
2018-01-04T01:05:35.824Z,37.8
2018-01-04T01:06:37.933Z,33.4
2018-01-04T01:07:39.837Z,44.8
2018-01-04T01:08:41.839Z,47.7
2018-01-04T01:09:43.855Z,46.6
2018-01-04T01:10:45.762Z,33.3
2018-01-04T01:11:47.810Z,35.0
2018-01-04T01:12:49.750Z,34.9
2018-01-04T01:13:51.685Z,33.6
2018-01-04T01:14:53.575Z,41.9
2018-01-04T01:15:55.544Z,48.0
2018-01-04T01:16:57.572Z,43.1
2018-01-04T01:17:59.755Z,36.2
2018-01-04T01:19:01.877Z,39.7
2018-01-04T01:20:03.808Z,37.9
2018-01-04T01:21:06.005Z,39.9
2018-01-04T01:22:07.995Z,43.6
2018-01-04T01:23:09.933Z,44.0
2018-01-04T01:24:11.927Z,37.5
2018-01-04T01:25:13.865Z,34.1
2018-01-04T01:26:15.806Z,36.5
2018-01-04T01:27:17.714Z,30.7
2018-01-04T01:28:19.690Z,40.7
2018-01-04T01:29:21.739Z,35.3
2018-01-04T01:30:23.770Z,40.8
2018-01-04T01:31:25.764Z,39.2
2018-01-04T01:32:27.746Z,31.3
2018-01-04T01:33:29.709Z,27.9
2018-01-04T01:34:31.770Z,35.9
2018-01-04T01:35:33.703Z,35.6
2018-01-04T01:36:35.670Z,32.9
2018-01-04T01:37:37.651Z,29.6
2018-01-04T01:38:39.697Z,36.4
2018-01-04T01:39:41.653Z,32.0
2018-01-04T01:40:43.705Z,34.3
2018-01-04T01:41:45.843Z,43.7
2018-01-04T01:42:47.816Z,34.8
2018-01-04T01:43:49.784Z,36.3
2018-01-04T01:44:51.709Z,39.4
2018-01-04T01:45:53.763Z,36.7
2018-01-04T01:46:55.777Z,39.7
2018-01-04T01:47:57.882Z,39.6
2018-01-04T01:48:59.771Z,43.9
2018-01-04T01:50:01.729Z,34.0
2018-01-04T01:51:03.723Z,36.5
2018-01-04T01:52:05.689Z,37.6
2018-01-04T01:53:07.595Z,35.2
2018-01-04T01:54:09.553Z,44.5
2018-01-04T01:55:11.480Z,38.3
2018-01-04T01:56:13.421Z,34.8
2018-01-04T01:57:15.346Z,37.8
2018-01-04T01:58:17.255Z,34.7
2018-01-04T01:59:19.196Z,37.6
2018-01-04T02:00:21.205Z,35.2
2018-01-04T02:01:23.355Z,41.6
2018-01-04T02:02:25.320Z,42.7
2018-01-04T02:03:27.331Z,37.9
2018-01-04T02:04:29.319Z,42.6
2018-01-04T02:05:31.467Z,36.7
2018-01-04T02:06:33.668Z,42.7
2018-01-04T02:07:35.718Z,44.5
2018-01-04T02:08:37.903Z,43.8
2018-01-04T02:09:40.042Z,38.6
2018-01-04T02:10:41.976Z,46.4
2018-01-04T02:11:44.193Z,46.3
2018-01-04T02:12:46.203Z,40.7
2018-01-04T02:13:48.542Z,39.0
2018-01-04T02:14:50.635Z,40.9
2018-01-04T02:15:53.018Z,37.5
2018-01-04T02:16:55.272Z,34.1
2018-01-04T02:17:57.265Z,29.3
2018-01-04T02:18:59.274Z,37.1
2018-01-04T02:20:01.367Z,41.7
2018-01-04T02:21:03.437Z,41.6
2018-01-04T02:22:05.439Z,30.6
2018-01-04T02:23:07.391Z,44.5
2018-01-04T02:24:09.414Z,43.4
2018-01-04T02:25:11.445Z,45.1
2018-01-04T02:26:13.385Z,38.6
2018-01-04T02:27:15.296Z,39.9
2018-01-04T02:28:17.310Z,29.6
2018-01-04T02:29:19.306Z,37.0
2018-01-04T02:30:21.308Z,37.2
2018-01-04T02:31:23.241Z,37.6
2018-01-04T02:32:25.120Z,36.2
2018-01-04T02:33:27.086Z,37.7
2018-01-04T02:34:28.978Z,32.1
2018-01-04T02:35:30.874Z,35.1
2018-01-04T02:36:32.817Z,38.2
2018-01-04T02:37:34.734Z,37.7
2018-01-04T02:38:36.636Z,43.9
2018-01-04T02:39:38.569Z,36.6
2018-01-04T02:40:40.538Z,38.3
2018-01-04T02:41:42.560Z,39.5
2018-01-04T02:42:44.522Z,36.2
2018-01-04T02:43:46.366Z,32.4
2018-01-04T02:44:48.316Z,41.8
2018-01-04T02:45:50.299Z,43.3
2018-01-04T02:46:52.252Z,32.4
2018-01-04T02:47:54.201Z,31.6
2018-01-04T02:48:56.069Z,48.7
2018-01-04T02:49:58.071Z,44.6
2018-01-04T02:51:00.030Z,45.8
2018-01-04T02:52:02.078Z,37.1
2018-01-04T02:53:04.068Z,41.7
2018-01-04T02:54:06.023Z,27.1
2018-01-04T02:55:07.937Z,40.7
2018-01-04T03:01:04.150Z,43.7
2018-01-04T03:02:05.837Z,47.9
2018-01-04T03:03:07.528Z,40.3
2018-01-04T03:04:09.240Z,46.7
2018-01-04T03:05:10.908Z,43.1
2018-01-04T03:06:12.570Z,50.3
2018-01-04T03:07:14.268Z,51.4
2018-01-04T03:08:15.990Z,42.7
2018-01-04T03:09:17.648Z,47.7
2018-01-04T03:10:19.458Z,30.9
2018-01-04T03:11:21.254Z,32.8
2018-01-04T03:12:23.132Z,46.4
2018-01-04T03:13:25.005Z,43.1
2018-01-04T03:14:26.888Z,37.1
2018-01-04T03:15:28.771Z,53.7
2018-01-04T03:16:30.671Z,38.4
2018-01-04T03:17:32.510Z,49.1
2018-01-04T03:18:34.449Z,47.2
2018-01-04T03:19:36.392Z,41.8
2018-01-04T03:20:38.278Z,44.6
2018-01-04T03:21:40.112Z,51.0
2018-01-04T03:22:42.037Z,31.2
2018-01-04T03:23:43.867Z,36.5
2018-01-04T03:24:45.753Z,42.5
2018-01-04T03:25:47.590Z,46.8
2018-01-04T03:26:49.539Z,46.5
2018-01-04T03:27:51.449Z,43.4
2018-01-04T03:28:53.322Z,36.1
2018-01-04T03:29:55.212Z,47.4
2018-01-04T03:30:57.115Z,45.3
2018-01-04T03:31:58.975Z,41.7
2018-01-04T03:33:00.880Z,45.7
2018-01-04T03:34:02.791Z,41.6
2018-01-04T03:35:04.682Z,51.0
2018-01-04T03:36:06.566Z,40.7
2018-01-04T03:37:08.526Z,52.0
2018-01-04T03:38:10.434Z,32.1
2018-01-04T03:39:12.382Z,46.2
2018-01-04T03:40:14.318Z,40.3
2018-01-04T03:41:16.132Z,46.6
2018-01-04T03:42:18.218Z,45.2
2018-01-04T03:43:20.221Z,41.7
2018-01-04T03:44:22.180Z,46.1
2018-01-04T03:45:24.252Z,46.1
2018-01-04T03:46:26.121Z,47.3
2018-01-04T03:47:28.075Z,45.2
2018-01-04T03:48:30.054Z,45.3
2018-01-04T03:49:31.977Z,34.1
2018-01-04T03:50:34.001Z,45.9
2018-01-04T03:51:35.993Z,45.7
2018-01-04T03:52:38.094Z,34.9
2018-01-04T03:53:40.139Z,50.7
2018-01-04T03:54:42.180Z,47.6
2018-01-04T03:55:44.149Z,38.1
2018-01-04T03:56:46.278Z,38.8
2018-01-04T03:57:48.773Z,43.9
2018-01-04T03:58:51.543Z,34.8
2018-01-04T03:59:53.959Z,36.4
2018-01-04T04:00:56.513Z,42.7
2018-01-04T04:01:59.467Z,34.0
2018-01-04T04:03:02.610Z,45.1
2018-01-04T04:04:05.399Z,46.4
2018-01-04T04:05:08.392Z,39.5
2018-01-04T04:06:11.228Z,37.0
2018-01-04T04:07:14.243Z,47.2
2018-01-04T04:08:17.324Z,44.9
2018-01-04T04:09:20.118Z,35.3
2018-01-04T04:10:23.132Z,45.2
2018-01-04T04:11:26.115Z,40.3
2018-01-04T04:12:28.838Z,47.1
2018-01-04T04:13:31.488Z,37.5
2018-01-04T04:14:34.372Z,41.7
2018-01-04T04:15:37.252Z,35.7
2018-01-04T04:16:39.725Z,40.5
2018-01-04T04:17:42.019Z,39.2
2018-01-04T04:18:44.799Z,36.1
2018-01-04T04:19:48.013Z,28.6
2018-01-04T04:20:50.828Z,36.1
2018-01-04T04:21:53.626Z,43.5
2018-01-04T04:22:56.935Z,42.5
2018-01-04T04:23:59.493Z,33.8
2018-01-04T04:25:02.317Z,34.1
2018-01-04T04:26:04.182Z,44.9
2018-01-04T04:27:07.008Z,37.5
2018-01-04T04:28:09.294Z,49.2
2018-01-04T04:29:11.794Z,36.2
2018-01-04T04:30:14.942Z,49.7
2018-01-04T04:31:17.843Z,34.3
2018-01-04T04:32:20.428Z,36.1
2018-01-04T04:33:23.168Z,43.8
2018-01-04T04:34:26.003Z,44.3
2018-01-04T04:35:28.723Z,41.1
2018-01-04T04:36:31.258Z,46.9
2018-01-04T04:37:33.668Z,46.0
2018-01-04T04:38:36.002Z,41.2
2018-01-04T04:39:38.356Z,36.3
2018-01-04T04:40:40.687Z,46.0
2018-01-04T04:41:43.020Z,45.1
2018-01-04T04:42:45.377Z,39.9
2018-01-04T04:43:47.813Z,35.0
2018-01-04T04:44:50.132Z,28.2
2018-01-04T04:45:52.329Z,42.5
2018-01-04T04:46:54.795Z,41.0
2018-01-04T04:47:56.940Z,41.7
2018-01-04T04:48:59.096Z,40.4
2018-01-04T04:50:01.288Z,35.4
2018-01-04T04:51:03.525Z,43.9
2018-01-04T04:52:05.776Z,42.8
2018-01-04T04:53:08.024Z,50.7
2018-01-04T04:54:10.401Z,47.5
2018-01-04T04:55:12.774Z,41.2
2018-01-04T04:56:14.968Z,49.8
2018-01-04T04:57:17.231Z,37.7
2018-01-04T04:58:19.479Z,45.4
2018-01-04T04:59:21.716Z,43.0
2018-01-04T05:00:23.901Z,42.9
2018-01-04T05:01:26.014Z,49.9
2018-01-04T05:02:28.079Z,35.6
2018-01-04T05:03:30.173Z,40.8
2018-01-04T05:04:32.201Z,41.8
2018-01-04T05:05:34.198Z,44.4
2018-01-04T05:06:36.275Z,41.8
2018-01-04T05:07:38.489Z,48.2
2018-01-04T05:08:40.675Z,41.1
2018-01-04T05:09:42.936Z,40.0
2018-01-04T05:10:44.993Z,42.5
2018-01-04T05:11:47.219Z,41.7
2018-01-04T05:12:49.350Z,47.0
2018-01-04T05:13:51.340Z,45.6
2018-01-04T05:14:53.548Z,41.4
2018-01-04T05:15:55.787Z,51.3
2018-01-04T05:16:58.054Z,44.8
2018-01-04T05:18:00.333Z,46.3
2018-01-04T05:19:02.715Z,48.5
2018-01-04T05:20:04.891Z,45.7
2018-01-04T05:21:07.137Z,39.9
2018-01-04T05:22:09.379Z,44.9
2018-01-04T05:23:11.588Z,45.5
2018-01-04T05:24:13.804Z,45.0
2018-01-04T05:25:16.108Z,42.8
2018-01-04T05:26:18.480Z,50.8
2018-01-04T05:27:20.669Z,43.5
2018-01-04T05:28:22.665Z,41.8
2018-01-04T05:29:24.483Z,45.6
2018-01-04T05:30:26.253Z,45.6
2018-01-04T05:31:28.053Z,43.8
2018-01-04T05:32:29.842Z,49.6
2018-01-04T05:33:31.610Z,48.8
2018-01-04T05:34:33.406Z,47.3
2018-01-04T05:35:35.229Z,55.3
2018-01-04T05:36:37.007Z,51.7
2018-01-04T05:37:38.747Z,47.7
2018-01-04T05:38:40.566Z,42.3
2018-01-04T05:39:42.297Z,42.6
2018-01-04T05:40:44.043Z,34.9
2018-01-04T05:41:45.860Z,41.3
2018-01-04T05:42:47.570Z,40.3
2018-01-04T05:43:49.319Z,39.0
2018-01-04T05:44:51.083Z,53.2
2018-01-04T05:45:52.859Z,52.8
2018-01-04T05:46:54.619Z,45.0
2018-01-04T05:47:56.377Z,42.1
2018-01-04T05:48:58.114Z,47.1
2018-01-04T05:49:59.887Z,46.6
2018-01-04T05:51:01.665Z,41.8
2018-01-04T05:52:03.364Z,48.8
2018-01-04T05:53:05.185Z,45.8
2018-01-04T05:54:06.955Z,48.4
2018-01-04T05:55:08.740Z,45.7
2018-01-04T05:56:10.502Z,47.6
2018-01-04T05:57:12.235Z,43.2
2018-01-04T05:58:14.023Z,49.4
2018-01-04T05:59:15.854Z,54.3
2018-01-04T06:00:17.673Z,43.4
2018-01-04T06:01:19.573Z,47.7
2018-01-04T06:02:21.428Z,46.6
2018-01-04T06:03:23.255Z,41.2
2018-01-04T06:04:25.055Z,46.9
2018-01-04T06:05:26.867Z,54.5
2018-01-04T06:06:28.668Z,42.4
2018-01-04T06:07:30.496Z,49.4
2018-01-04T06:08:32.246Z,52.2
2018-01-04T06:09:34.095Z,53.3
2018-01-04T06:10:35.866Z,35.4
2018-01-04T06:11:37.634Z,43.6
2018-01-04T06:12:39.399Z,42.1
2018-01-04T06:13:41.220Z,51.8
2018-01-04T06:14:43.128Z,43.5
2018-01-04T06:15:44.863Z,50.8
2018-01-04T06:16:46.822Z,38.3
2018-01-04T06:17:48.600Z,45.0
2018-01-04T06:18:50.390Z,50.6
2018-01-04T06:19:53.057Z,51.0
2018-01-04T06:20:54.855Z,55.3
2018-01-04T06:21:56.696Z,45.1
2018-01-04T06:22:58.484Z,47.1
2018-01-04T06:24:00.354Z,46.6
2018-01-04T06:25:02.167Z,46.0
2018-01-04T06:26:04.166Z,60.2
2018-01-04T06:27:06.339Z,58.5
2018-01-04T06:28:08.749Z,49.4
2018-01-04T06:29:10.578Z,60.6
2018-01-04T06:30:12.373Z,49.3
2018-01-04T06:31:14.191Z,48.1
2018-01-04T06:32:16.132Z,42.7
2018-01-04T06:33:17.909Z,60.1
2018-01-04T06:34:19.784Z,57.0
2018-01-04T06:35:21.576Z,50.2
2018-01-04T06:36:23.895Z,57.0
2018-01-04T06:37:25.697Z,45.9
2018-01-04T06:38:27.873Z,43.4
2018-01-04T06:39:29.727Z,46.1
2018-01-04T06:40:31.483Z,42.0
2018-01-04T06:41:33.361Z,52.0
2018-01-04T06:42:35.145Z,60.8
2018-01-04T06:43:37.072Z,43.4
2018-01-04T06:44:38.923Z,46.4
2018-01-04T06:45:40.734Z,42.0
2018-01-04T06:46:42.650Z,50.0
2018-01-04T06:47:44.416Z,40.9
2018-01-04T06:48:46.210Z,52.4
2018-01-04T06:49:48.030Z,50.0
2018-01-04T06:50:49.799Z,44.3
2018-01-04T06:51:51.591Z,46.3
2018-01-04T06:52:53.366Z,49.0
2018-01-04T06:53:55.203Z,53.9
2018-01-04T06:54:56.956Z,51.4
2018-01-04T06:55:58.717Z,54.2
2018-01-04T07:01:54.366Z,60.0
2018-01-04T07:02:56.014Z,63.6
2018-01-04T07:03:57.658Z,57.0
2018-01-04T07:04:59.298Z,56.1
2018-01-04T07:06:00.936Z,46.6
2018-01-04T07:07:02.585Z,50.5
2018-01-04T07:08:04.246Z,46.4
2018-01-04T07:09:05.910Z,53.5
2018-01-04T07:10:07.730Z,56.8
2018-01-04T07:11:09.447Z,45.8
2018-01-04T07:12:11.311Z,54.0
2018-01-04T07:13:13.079Z,41.4
2018-01-04T07:14:15.089Z,47.6
2018-01-04T07:15:16.979Z,55.3
2018-01-04T07:16:18.961Z,45.7
2018-01-04T07:17:20.850Z,44.3
2018-01-04T07:18:22.845Z,42.9
2018-01-04T07:19:24.900Z,47.5
2018-01-04T07:20:26.975Z,51.7
2018-01-04T07:21:28.853Z,54.9
2018-01-04T07:22:30.781Z,44.4
2018-01-04T07:23:32.788Z,50.5
2018-01-04T07:24:34.793Z,47.0
2018-01-04T07:25:36.826Z,45.0
2018-01-04T07:26:38.851Z,45.1
2018-01-04T07:27:40.872Z,42.8
2018-01-04T07:28:43.066Z,46.2
2018-01-04T07:29:45.080Z,47.6
2018-01-04T07:30:47.049Z,55.5
2018-01-04T07:31:49.056Z,33.4
2018-01-04T07:32:51.048Z,45.5
2018-01-04T07:33:53.135Z,52.1
2018-01-04T07:34:55.101Z,45.9
2018-01-04T07:35:57.126Z,48.6
2018-01-04T07:36:59.117Z,45.9
2018-01-04T07:38:01.237Z,53.8
2018-01-04T07:39:03.210Z,44.2
2018-01-04T07:40:05.184Z,49.2
2018-01-04T07:41:07.078Z,53.8
2018-01-04T07:42:09.006Z,46.8
2018-01-04T07:43:10.989Z,49.8
2018-01-04T07:44:12.978Z,48.3
2018-01-04T07:45:14.958Z,53.6
2018-01-04T07:46:16.863Z,44.0
2018-01-04T07:47:18.966Z,41.1
2018-01-04T07:48:21.061Z,44.3
2018-01-04T07:49:23.006Z,41.8
2018-01-04T07:50:24.971Z,45.0
2018-01-04T07:51:27.552Z,45.6
2018-01-04T07:52:29.545Z,36.8
2018-01-04T07:53:31.532Z,38.2
2018-01-04T07:54:33.468Z,51.5
2018-01-04T07:55:35.459Z,45.2
2018-01-04T07:56:38.285Z,44.1
2018-01-04T07:57:40.292Z,55.7
2018-01-04T07:58:42.273Z,50.4
2018-01-04T07:59:44.232Z,44.1
2018-01-04T08:00:46.158Z,44.9
2018-01-04T08:01:48.334Z,46.7
2018-01-04T08:02:50.308Z,39.7
2018-01-04T08:03:52.369Z,48.7
2018-01-04T08:04:54.287Z,41.1
2018-01-04T08:05:56.206Z,46.9
2018-01-04T08:06:58.223Z,35.4
2018-01-04T08:08:00.288Z,41.7
2018-01-04T08:09:02.354Z,45.7
2018-01-04T08:10:04.350Z,43.8
2018-01-04T08:11:06.464Z,49.1
2018-01-04T08:12:08.430Z,38.4
2018-01-04T08:13:10.477Z,30.0
2018-01-04T08:14:12.514Z,41.6
2018-01-04T08:15:14.481Z,30.7
2018-01-04T08:16:16.486Z,27.0
2018-01-04T08:17:18.456Z,34.0
2018-01-04T08:18:20.478Z,35.6
2018-01-04T08:19:22.455Z,32.8
2018-01-04T08:20:24.459Z,30.2
2018-01-04T08:21:26.407Z,32.8
2018-01-04T08:22:28.395Z,27.9
2018-01-04T08:23:30.346Z,35.7
2018-01-04T08:24:32.291Z,32.1
2018-01-04T08:25:34.262Z,47.8
2018-01-04T08:26:36.270Z,25.0
2018-01-04T08:27:38.272Z,31.4
2018-01-04T08:28:40.261Z,30.3
2018-01-04T08:29:42.222Z,32.0
2018-01-04T08:30:44.200Z,40.0
2018-01-04T08:31:46.217Z,30.0
2018-01-04T08:32:48.233Z,38.8
2018-01-04T08:33:50.266Z,35.6
2018-01-04T08:34:52.242Z,31.9
2018-01-04T08:35:54.276Z,35.4
2018-01-04T08:36:56.260Z,34.5
2018-01-04T08:37:58.257Z,40.3
2018-01-04T08:39:00.245Z,36.4
2018-01-04T08:40:02.226Z,33.7
2018-01-04T08:41:04.162Z,36.3
2018-01-04T08:42:06.170Z,31.0
2018-01-04T08:43:08.246Z,35.9
2018-01-04T08:44:10.254Z,38.9
2018-01-04T08:45:12.263Z,32.6
2018-01-04T08:46:14.214Z,34.9
2018-01-04T08:47:16.187Z,40.3
2018-01-04T08:48:18.136Z,35.9
2018-01-04T08:49:20.197Z,37.2
2018-01-04T08:50:22.236Z,34.2
2018-01-04T08:51:24.217Z,40.5
2018-01-04T08:52:26.201Z,40.0
2018-01-04T08:53:28.146Z,44.3
2018-01-04T08:54:30.136Z,35.2
2018-01-04T08:55:32.109Z,47.8
2018-01-04T08:56:34.102Z,31.9
2018-01-04T08:57:36.110Z,47.5
2018-01-04T08:58:38.090Z,30.8
2018-01-04T08:59:40.114Z,39.5
2018-01-04T09:00:42.089Z,43.6
2018-01-04T09:01:44.110Z,35.4
2018-01-04T09:02:46.049Z,37.4
2018-01-04T09:03:48.018Z,43.2
2018-01-04T09:04:50.012Z,37.1
2018-01-04T09:05:52.036Z,44.3
2018-01-04T09:06:54.076Z,29.8
2018-01-04T09:07:56.022Z,32.2
2018-01-04T09:08:57.938Z,46.2
2018-01-04T09:09:59.946Z,33.2
2018-01-04T09:11:01.975Z,33.0
2018-01-04T09:12:04.039Z,34.5
2018-01-04T09:13:06.029Z,33.5
2018-01-04T09:14:07.935Z,38.0
2018-01-04T09:15:09.897Z,43.9
2018-01-04T09:16:12.060Z,33.0
2018-01-04T09:17:14.129Z,40.0
2018-01-04T09:18:16.179Z,44.4
2018-01-04T09:19:18.210Z,33.9
2018-01-04T09:20:20.175Z,32.3
2018-01-04T09:21:22.214Z,40.6
2018-01-04T09:22:24.143Z,35.5
2018-01-04T09:23:26.668Z,48.0
2018-01-04T09:24:28.643Z,36.8
2018-01-04T09:25:30.607Z,41.6
2018-01-04T09:26:32.572Z,32.0
2018-01-04T09:27:34.562Z,33.7
2018-01-04T09:28:36.625Z,33.6
2018-01-04T09:29:38.619Z,38.3
2018-01-04T09:30:40.616Z,34.1
2018-01-04T09:31:42.690Z,35.4
2018-01-04T09:32:44.630Z,40.8
2018-01-04T09:33:46.491Z,44.9
2018-01-04T09:34:48.533Z,40.6
2018-01-04T09:35:50.444Z,44.1
2018-01-04T09:36:52.492Z,40.1
2018-01-04T09:37:54.662Z,41.4
2018-01-04T09:38:56.627Z,35.1
2018-01-04T09:39:58.536Z,42.5
2018-01-04T09:41:00.396Z,37.7
2018-01-04T09:42:02.118Z,39.2
2018-01-04T09:43:03.881Z,44.9
2018-01-04T09:44:05.659Z,38.1
2018-01-04T09:45:07.444Z,44.1
2018-01-04T09:46:09.209Z,29.6
2018-01-04T09:47:11.115Z,33.3
2018-01-04T09:48:13.027Z,33.4
2018-01-04T09:49:14.806Z,47.6
2018-01-04T09:50:16.628Z,37.3
2018-01-04T09:51:18.440Z,35.8
2018-01-04T09:52:20.256Z,39.1
2018-01-04T09:53:22.020Z,40.0
2018-01-04T09:54:23.824Z,36.3
2018-01-04T09:55:25.672Z,32.2
2018-01-04T09:56:27.458Z,39.1
2018-01-04T09:57:29.276Z,30.5
2018-01-04T09:58:31.119Z,35.5
2018-01-04T09:59:32.919Z,37.4
2018-01-04T10:00:34.787Z,35.4
2018-01-04T10:01:36.676Z,39.1
2018-01-04T10:02:38.614Z,36.6
2018-01-04T10:03:40.591Z,38.0
2018-01-04T10:04:42.518Z,32.6
2018-01-04T10:05:44.428Z,31.8
2018-01-04T10:06:46.544Z,32.3
2018-01-04T10:07:48.652Z,30.4
2018-01-04T10:08:50.668Z,37.4
2018-01-04T10:09:52.680Z,30.7
2018-01-04T10:10:54.586Z,29.1
2018-01-04T10:11:56.649Z,31.1
2018-01-04T10:12:58.588Z,30.6
2018-01-04T10:14:00.496Z,27.8
2018-01-04T10:15:02.454Z,40.0
2018-01-04T10:16:04.369Z,31.3
2018-01-04T10:17:06.290Z,33.1
2018-01-04T10:18:08.299Z,31.7
2018-01-04T10:19:10.290Z,38.9
2018-01-04T10:20:12.299Z,30.4
2018-01-04T10:21:14.267Z,30.4
2018-01-04T10:22:16.245Z,32.2
2018-01-04T10:23:18.205Z,36.4
2018-01-04T10:24:20.164Z,31.2
2018-01-04T10:25:22.145Z,22.0
2018-01-04T10:26:24.155Z,26.3
2018-01-04T10:27:26.135Z,26.9
2018-01-04T10:28:28.151Z,25.5
2018-01-04T10:29:30.078Z,27.5
2018-01-04T10:30:32.053Z,27.0
2018-01-04T10:31:33.954Z,27.4
2018-01-04T10:32:35.930Z,20.1
2018-01-04T10:33:37.936Z,19.6
2018-01-04T10:34:39.952Z,20.0
2018-01-04T10:35:41.754Z,31.1
2018-01-04T10:36:43.608Z,24.5
2018-01-04T10:37:45.425Z,17.8
2018-01-04T10:38:47.308Z,24.3
2018-01-04T10:39:49.204Z,20.8
2018-01-04T10:40:50.939Z,28.6
2018-01-04T10:41:52.844Z,25.6
2018-01-04T10:42:54.805Z,16.3
2018-01-04T10:43:56.597Z,18.3
2018-01-04T10:44:58.494Z,27.0
2018-01-04T10:46:00.394Z,17.7
2018-01-04T10:47:02.347Z,20.7
2018-01-04T10:48:04.217Z,19.6
2018-01-04T10:49:06.284Z,16.8
2018-01-04T10:50:08.180Z,19.2
2018-01-04T10:51:10.108Z,18.8
2018-01-04T10:52:12.180Z,14.0
2018-01-04T10:53:14.301Z,16.5
2018-01-04T10:54:16.413Z,10.7
2018-01-04T10:55:18.550Z,14.3
2018-01-04T11:01:23.479Z,6.6
2018-01-04T11:02:25.352Z,13.5
2018-01-04T11:03:27.097Z,13.7
2018-01-04T11:04:29.041Z,10.1
2018-01-04T11:05:31.112Z,11.3
2018-01-04T11:06:33.120Z,12.7
2018-01-04T11:07:35.219Z,12.3
2018-01-04T11:08:37.262Z,11.8
2018-01-04T11:09:39.409Z,14.6
2018-01-04T11:10:41.401Z,9.5
2018-01-04T11:11:43.560Z,9.7
2018-01-04T11:12:45.530Z,8.9
2018-01-04T11:13:47.462Z,8.4
2018-01-04T11:14:49.785Z,9.0
2018-01-04T11:15:52.102Z,9.4
2018-01-04T11:16:53.975Z,8.8
2018-01-04T11:17:56.027Z,10.3
2018-01-04T11:18:58.093Z,10.7
2018-01-04T11:20:00.316Z,10.9
2018-01-04T11:21:03.234Z,8.8
2018-01-04T11:22:05.546Z,9.7
2018-01-04T11:23:07.918Z,12.3
2018-01-04T11:24:11.026Z,17.3
2018-01-04T11:25:13.524Z,13.1
2018-01-04T11:26:16.055Z,8.6
2018-01-04T11:27:18.596Z,10.0
2018-01-04T11:28:20.998Z,16.9
2018-01-04T11:29:23.480Z,13.6
2018-01-04T11:30:25.705Z,8.9
2018-01-04T11:31:27.818Z,13.7
2018-01-04T11:32:29.859Z,8.0
2018-01-04T11:33:32.067Z,6.3
2018-01-04T11:34:34.208Z,6.8
2018-01-04T11:35:36.349Z,9.1
2018-01-04T11:36:38.451Z,8.2
2018-01-04T11:37:40.568Z,12.2
2018-01-04T11:38:42.753Z,11.7
2018-01-04T11:39:44.821Z,12.9
2018-01-04T11:40:47.146Z,11.0
2018-01-04T11:41:49.506Z,11.7
2018-01-04T11:42:51.714Z,9.3
2018-01-04T11:43:53.740Z,12.1
2018-01-04T11:44:55.805Z,8.0
2018-01-04T11:45:57.918Z,7.2
2018-01-04T11:47:00.150Z,9.3
2018-01-04T11:48:02.141Z,9.4
2018-01-04T11:49:04.188Z,10.5
2018-01-04T11:50:06.322Z,5.3
2018-01-04T11:51:08.297Z,5.5
2018-01-04T11:52:10.443Z,7.4
2018-01-04T11:53:12.624Z,10.0
2018-01-04T11:54:14.552Z,9.9
2018-01-04T11:55:16.660Z,18.9
2018-01-04T11:56:19.694Z,19.1
2018-01-04T11:57:21.621Z,21.8
2018-01-04T11:58:23.605Z,57.9
2018-01-04T11:59:25.638Z,33.6
2018-01-04T12:00:27.653Z,12.1
2018-01-04T12:01:29.635Z,18.6
2018-01-04T12:02:31.681Z,34.0
2018-01-04T12:03:33.718Z,37.4
2018-01-04T12:04:35.799Z,36.1
2018-01-04T12:05:37.698Z,32.0
2018-01-04T12:06:39.662Z,23.5
2018-01-04T12:07:41.608Z,13.7
2018-01-04T12:08:43.872Z,9.5
2018-01-04T12:09:45.962Z,9.6
2018-01-04T12:10:48.025Z,6.2
2018-01-04T12:11:50.046Z,6.3
2018-01-04T12:12:51.999Z,4.8
2018-01-04T12:13:53.947Z,3.9
2018-01-04T12:14:55.848Z,7.6
2018-01-04T12:15:57.903Z,10.6
2018-01-04T12:17:00.037Z,7.8
2018-01-04T12:18:02.021Z,7.5
2018-01-04T12:19:04.173Z,7.6
2018-01-04T12:20:06.477Z,6.7
2018-01-04T12:21:08.459Z,6.1
2018-01-04T12:22:10.364Z,4.3
2018-01-04T12:23:12.308Z,5.1
2018-01-04T12:24:14.330Z,4.8
2018-01-04T12:25:16.314Z,7.7
2018-01-04T12:26:18.278Z,9.2
2018-01-04T12:27:20.137Z,10.2
2018-01-04T12:28:21.943Z,8.8
2018-01-04T12:29:23.915Z,10.9
2018-01-04T12:30:25.836Z,10.1
2018-01-04T12:31:27.788Z,7.2
2018-01-04T12:32:29.762Z,3.7
2018-01-04T12:33:31.848Z,6.8
2018-01-04T12:34:33.863Z,8.4
2018-01-04T12:35:35.906Z,8.1
2018-01-04T12:36:38.006Z,8.5
2018-01-04T12:37:40.088Z,6.7
2018-01-04T12:38:42.293Z,7.6
2018-01-04T12:39:44.604Z,6.5
2018-01-04T12:40:46.636Z,8.0
2018-01-04T12:41:49.007Z,7.6
2018-01-04T12:42:51.232Z,7.1
2018-01-04T12:43:53.344Z,5.0
2018-01-04T12:44:55.563Z,3.6
2018-01-04T12:45:57.882Z,5.2
2018-01-04T12:47:00.085Z,9.6
2018-01-04T12:48:02.411Z,8.9
2018-01-04T12:49:04.416Z,7.5
2018-01-04T12:50:06.429Z,4.1
2018-01-04T12:51:08.463Z,8.2
2018-01-04T12:52:10.484Z,4.9
2018-01-04T12:53:12.507Z,4.3
2018-01-04T12:54:14.643Z,6.0
2018-01-04T12:55:16.659Z,7.0
2018-01-04T12:56:18.698Z,4.8
2018-01-04T12:57:20.860Z,5.2
2018-01-04T12:58:22.869Z,3.9
2018-01-04T12:59:24.835Z,3.8
2018-01-04T13:00:26.841Z,3.9
2018-01-04T13:01:28.769Z,3.8
2018-01-04T13:02:30.795Z,6.1
2018-01-04T13:03:32.765Z,9.2
2018-01-04T13:04:34.716Z,9.9
2018-01-04T13:05:36.722Z,7.0
2018-01-04T13:06:38.713Z,6.1
2018-01-04T13:07:40.655Z,3.6
2018-01-04T13:08:42.716Z,4.1
2018-01-04T13:09:44.697Z,4.8
2018-01-04T13:10:46.737Z,2.1
2018-01-04T13:11:48.747Z,3.5
2018-01-04T13:12:50.705Z,4.9
2018-01-04T13:13:52.715Z,2.5
2018-01-04T13:14:54.770Z,3.1
2018-01-04T13:15:56.622Z,3.8
2018-01-04T13:16:58.574Z,2.3
2018-01-04T13:18:00.689Z,3.8
2018-01-04T13:19:02.617Z,5.5
2018-01-04T13:20:04.513Z,6.0
2018-01-04T13:21:06.418Z,5.7
2018-01-04T13:22:08.400Z,4.1
2018-01-04T13:23:10.363Z,5.7
2018-01-04T13:24:12.209Z,3.7
2018-01-04T13:25:14.156Z,3.7
2018-01-04T13:26:16.090Z,3.8
2018-01-04T13:27:17.970Z,4.0
2018-01-04T13:28:19.985Z,6.2
2018-01-04T13:29:21.915Z,6.4
2018-01-04T13:30:23.833Z,3.8
2018-01-04T13:31:25.703Z,3.5
2018-01-04T13:32:27.669Z,3.9
2018-01-04T13:33:29.578Z,5.4
2018-01-04T13:34:31.511Z,7.1
2018-01-04T13:35:33.432Z,7.6
2018-01-04T13:36:35.418Z,3.3
2018-01-04T13:37:37.348Z,3.7
2018-01-04T13:38:39.260Z,3.2
2018-01-04T13:39:41.258Z,5.8
2018-01-04T13:40:43.232Z,3.6
2018-01-04T13:41:45.194Z,6.2
2018-01-04T13:42:47.163Z,3.7
2018-01-04T13:43:49.337Z,5.1
2018-01-04T13:44:51.347Z,4.0
2018-01-04T13:45:53.331Z,7.2
2018-01-04T13:46:55.387Z,4.8
2018-01-04T13:47:57.339Z,4.4
2018-01-04T13:48:59.398Z,7.6
2018-01-04T13:50:01.347Z,5.8
2018-01-04T13:51:03.232Z,6.1
2018-01-04T13:52:05.256Z,4.1
2018-01-04T13:53:07.248Z,5.9
2018-01-04T13:54:09.348Z,9.4
2018-01-04T13:55:11.423Z,6.3
2018-01-04T13:56:13.376Z,9.3
2018-01-04T13:57:15.265Z,11.4
2018-01-04T13:58:17.346Z,7.6
2018-01-04T13:59:19.393Z,5.4
2018-01-04T14:00:21.499Z,6.0
2018-01-04T14:01:23.508Z,9.9
2018-01-04T14:02:25.531Z,5.9
2018-01-04T14:03:27.700Z,6.0
2018-01-04T14:04:29.714Z,3.5